sensor_id;sensor_type;location;lat;lon;timestamp;P1;durP1;ratioP1;P2;durP2;ratioP2
26864;SDS011;40618;51.166;10.322;2024-01-10T00:01:58;38.50;;;18.10;;
26864;SDS011;40618;51.166;10.322;2024-01-10T00:04:24;40.80;;;19.42;;
26864;SDS011;40618;51.166;10.322;2024-01-10T00:06:49;35.92;;;18.17;;
26864;SDS011;40618;51.166;10.322;2024-01-10T00:09:15;37.90;;;17.75;;
26864;SDS011;40618;51.166;10.322;2024-01-10T00:11:40;36.60;;;17.88;;
26864;SDS011;40618;51.166;10.322;2024-01-10T00:14:06;37.40;;;18.73;;
26864;SDS011;40618;51.166;10.322;2024-01-10T00:16:32;37.92;;;17.88;;
26864;SDS011;40618;51.166;10.322;2024-01-10T00:18:57;36.00;;;17.63;;
26864;SDS011;40618;51.166;10.322;2024-01-10T00:21:23;37.65;;;17.88;;
26864;SDS011;40618;51.166;10.322;2024-01-10T00:23:49;36.35;;;17.98;;
26864;SDS011;40618;51.166;10.322;2024-01-10T00:26:14;36.58;;;17.45;;
26864;SDS011;40618;51.166;10.322;2024-01-10T00:28:40;37.55;;;18.92;;
26864;SDS011;40618;51.166;10.322;2024-01-10T00:31:06;40.85;;;18.70;;
26864;SDS011;40618;51.166;10.322;2024-01-10T00:33:31;38.80;;;17.90;;
26864;SDS011;40618;51.166;10.322;2024-01-10T00:35:57;38.60;;;18.40;;
26864;SDS011;40618;51.166;10.322;2024-01-10T00:38:22;40.65;;;17.73;;
26864;SDS011;40618;51.166;10.322;2024-01-10T00:40:48;39.15;;;19.42;;
26864;SDS011;40618;51.166;10.322;2024-01-10T00:43:13;43.50;;;19.10;;
26864;SDS011;40618;51.166;10.322;2024-01-10T00:45:39;36.67;;;17.73;;
26864;SDS011;40618;51.166;10.322;2024-01-10T00:48:04;35.75;;;17.88;;
26864;SDS011;40618;51.166;10.322;2024-01-10T00:50:30;37.72;;;17.63;;
26864;SDS011;40618;51.166;10.322;2024-01-10T00:52:56;40.88;;;20.00;;
26864;SDS011;40618;51.166;10.322;2024-01-10T00:55:21;39.47;;;19.15;;
26864;SDS011;40618;51.166;10.322;2024-01-10T00:57:47;41.38;;;19.42;;
26864;SDS011;40618;51.166;10.322;2024-01-10T01:00:13;40.15;;;19.52;;
26864;SDS011;40618;51.166;10.322;2024-01-10T01:02:39;40.53;;;20.08;;
26864;SDS011;40618;51.166;10.322;2024-01-10T01:05:05;41.70;;;19.40;;
26864;SDS011;40618;51.166;10.322;2024-01-10T01:10:01;31.55;;;16.83;;
26864;SDS011;40618;51.166;10.322;2024-01-10T01:12:27;36.30;;;18.88;;
26864;SDS011;40618;51.166;10.322;2024-01-10T01:14:53;37.85;;;18.80;;
26864;SDS011;40618;51.166;10.322;2024-01-10T01:17:18;38.83;;;18.83;;
26864;SDS011;40618;51.166;10.322;2024-01-10T01:19:44;38.80;;;19.30;;
26864;SDS011;40618;51.166;10.322;2024-01-10T01:22:10;45.70;;;20.98;;
26864;SDS011;40618;51.166;10.322;2024-01-10T01:24:35;45.33;;;20.88;;
26864;SDS011;40618;51.166;10.322;2024-01-10T01:27:02;43.50;;;19.33;;
26864;SDS011;40618;51.166;10.322;2024-01-10T01:29:28;42.03;;;19.50;;
26864;SDS011;40618;51.166;10.322;2024-01-10T01:31:54;38.17;;;18.52;;
26864;SDS011;40618;51.166;10.322;2024-01-10T01:34:20;40.97;;;19.17;;
26864;SDS011;40618;51.166;10.322;2024-01-10T01:36:46;40.75;;;18.80;;
26864;SDS011;40618;51.166;10.322;2024-01-10T01:39:11;43.22;;;20.55;;
26864;SDS011;40618;51.166;10.322;2024-01-10T01:41:38;41.22;;;19.45;;
26864;SDS011;40618;51.166;10.322;2024-01-10T01:44:04;48.65;;;20.45;;
26864;SDS011;40618;51.166;10.322;2024-01-10T01:46:30;44.15;;;21.38;;
26864;SDS011;40618;51.166;10.322;2024-01-10T01:48:58;39.50;;;19.02;;
26864;SDS011;40618;51.166;10.322;2024-01-10T01:51:24;36.25;;;18.80;;
26864;SDS011;40618;51.166;10.322;2024-01-10T01:53:53;42.77;;;19.90;;
26864;SDS011;40618;51.166;10.322;2024-01-10T01:56:20;56.25;;;23.08;;
26864;SDS011;40618;51.166;10.322;2024-01-10T01:58:47;40.40;;;19.98;;
26864;SDS011;40618;51.166;10.322;2024-01-10T02:01:16;39.60;;;19.73;;
26864;SDS011;40618;51.166;10.322;2024-01-10T02:03:46;39.58;;;20.02;;
26864;SDS011;40618;51.166;10.322;2024-01-10T02:06:12;40.63;;;19.13;;
26864;SDS011;40618;51.166;10.322;2024-01-10T02:08:38;42.15;;;19.73;;
26864;SDS011;40618;51.166;10.322;2024-01-10T02:11:04;46.00;;;21.98;;
26864;SDS011;40618;51.166;10.322;2024-01-10T02:13:33;41.97;;;20.02;;
26864;SDS011;40618;51.166;10.322;2024-01-10T02:15:59;41.37;;;19.83;;
26864;SDS011;40618;51.166;10.322;2024-01-10T02:18:25;42.28;;;20.58;;
26864;SDS011;40618;51.166;10.322;2024-01-10T02:20:51;42.13;;;20.08;;
26864;SDS011;40618;51.166;10.322;2024-01-10T02:23:17;44.50;;;20.05;;
26864;SDS011;40618;51.166;10.322;2024-01-10T02:25:43;42.03;;;19.90;;
26864;SDS011;40618;51.166;10.322;2024-01-10T02:28:09;42.45;;;20.33;;
26864;SDS011;40618;51.166;10.322;2024-01-10T02:30:35;46.20;;;21.58;;
26864;SDS011;40618;51.166;10.322;2024-01-10T02:33:02;41.10;;;20.70;;
26864;SDS011;40618;51.166;10.322;2024-01-10T02:35:28;44.08;;;21.60;;
26864;SDS011;40618;51.166;10.322;2024-01-10T02:37:55;42.17;;;20.83;;
26864;SDS011;40618;51.166;10.322;2024-01-10T02:40:21;45.85;;;21.15;;
26864;SDS011;40618;51.166;10.322;2024-01-10T02:42:47;40.05;;;19.65;;
26864;SDS011;40618;51.166;10.322;2024-01-10T02:45:12;43.38;;;21.45;;
26864;SDS011;40618;51.166;10.322;2024-01-10T02:47:38;42.80;;;20.35;;
26864;SDS011;40618;51.166;10.322;2024-01-10T02:50:05;46.47;;;20.73;;
26864;SDS011;40618;51.166;10.322;2024-01-10T02:52:31;41.72;;;20.70;;
26864;SDS011;40618;51.166;10.322;2024-01-10T02:54:57;43.60;;;20.48;;
26864;SDS011;40618;51.166;10.322;2024-01-10T02:57:22;45.95;;;20.90;;
26864;SDS011;40618;51.166;10.322;2024-01-10T02:59:48;40.83;;;20.38;;
26864;SDS011;40618;51.166;10.322;2024-01-10T03:02:14;43.53;;;21.33;;
26864;SDS011;40618;51.166;10.322;2024-01-10T03:04:40;50.17;;;20.83;;
26864;SDS011;40618;51.166;10.322;2024-01-10T03:07:07;43.65;;;21.50;;
26864;SDS011;40618;51.166;10.322;2024-01-10T03:09:32;46.95;;;21.40;;
26864;SDS011;40618;51.166;10.322;2024-01-10T03:11:58;47.70;;;21.75;;
26864;SDS011;40618;51.166;10.322;2024-01-10T03:14:24;42.28;;;20.80;;
26864;SDS011;40618;51.166;10.322;2024-01-10T03:16:49;46.33;;;21.20;;
26864;SDS011;40618;51.166;10.322;2024-01-10T03:19:15;40.28;;;19.95;;
26864;SDS011;40618;51.166;10.322;2024-01-10T03:21:40;44.85;;;20.38;;
26864;SDS011;40618;51.166;10.322;2024-01-10T03:24:06;46.17;;;22.45;;
26864;SDS011;40618;51.166;10.322;2024-01-10T03:26:33;44.85;;;21.67;;
26864;SDS011;40618;51.166;10.322;2024-01-10T03:28:58;47.97;;;23.17;;
26864;SDS011;40618;51.166;10.322;2024-01-10T03:31:26;47.78;;;22.50;;
26864;SDS011;40618;51.166;10.322;2024-01-10T03:33:54;45.30;;;21.92;;
26864;SDS011;40618;51.166;10.322;2024-01-10T03:36:19;46.38;;;21.98;;
26864;SDS011;40618;51.166;10.322;2024-01-10T03:38:45;46.95;;;21.70;;
26864;SDS011;40618;51.166;10.322;2024-01-10T03:41:14;47.40;;;22.60;;
26864;SDS011;40618;51.166;10.322;2024-01-10T03:43:40;45.53;;;21.38;;
26864;SDS011;40618;51.166;10.322;2024-01-10T03:46:07;47.20;;;22.33;;
26864;SDS011;40618;51.166;10.322;2024-01-10T03:48:33;52.47;;;23.58;;
26864;SDS011;40618;51.166;10.322;2024-01-10T03:50:58;54.75;;;24.65;;
26864;SDS011;40618;51.166;10.322;2024-01-10T03:53:24;46.95;;;22.23;;
26864;SDS011;40618;51.166;10.322;2024-01-10T03:55:49;47.20;;;22.27;;
26864;SDS011;40618;51.166;10.322;2024-01-10T03:58:15;51.05;;;23.45;;
26864;SDS011;40618;51.166;10.322;2024-01-10T04:00:40;51.80;;;23.63;;
26864;SDS011;40618;51.166;10.322;2024-01-10T04:03:06;47.17;;;23.60;;
26864;SDS011;40618;51.166;10.322;2024-01-10T04:05:31;51.22;;;24.58;;
26864;SDS011;40618;51.166;10.322;2024-01-10T04:07:57;49.30;;;23.00;;
26864;SDS011;40618;51.166;10.322;2024-01-10T04:10:23;45.67;;;22.63;;
26864;SDS011;40618;51.166;10.322;2024-01-10T04:12:48;43.25;;;21.73;;
26864;SDS011;40618;51.166;10.322;2024-01-10T04:15:14;49.97;;;22.90;;
26864;SDS011;40618;51.166;10.322;2024-01-10T04:17:42;46.33;;;20.35;;
26864;SDS011;40618;51.166;10.322;2024-01-10T04:20:08;47.10;;;22.27;;
26864;SDS011;40618;51.166;10.322;2024-01-10T04:22:34;48.72;;;21.75;;
26864;SDS011;40618;51.166;10.322;2024-01-10T04:25:00;54.58;;;25.50;;
26864;SDS011;40618;51.166;10.322;2024-01-10T04:27:29;47.45;;;21.45;;
26864;SDS011;40618;51.166;10.322;2024-01-10T04:29:55;44.50;;;21.58;;
26864;SDS011;40618;51.166;10.322;2024-01-10T04:32:21;48.92;;;22.92;;
26864;SDS011;40618;51.166;10.322;2024-01-10T04:34:46;48.50;;;23.45;;
26864;SDS011;40618;51.166;10.322;2024-01-10T04:37:12;44.90;;;23.15;;
26864;SDS011;40618;51.166;10.322;2024-01-10T04:39:38;48.72;;;21.80;;
26864;SDS011;40618;51.166;10.322;2024-01-10T04:42:05;49.60;;;22.10;;
26864;SDS011;40618;51.166;10.322;2024-01-10T04:44:30;44.67;;;22.52;;
26864;SDS011;40618;51.166;10.322;2024-01-10T04:46:56;49.65;;;23.00;;
26864;SDS011;40618;51.166;10.322;2024-01-10T04:49:22;44.30;;;22.30;;
26864;SDS011;40618;51.166;10.322;2024-01-10T04:51:48;53.40;;;24.52;;
26864;SDS011;40618;51.166;10.322;2024-01-10T04:54:14;49.80;;;24.05;;
26864;SDS011;40618;51.166;10.322;2024-01-10T04:56:40;52.38;;;23.52;;
26864;SDS011;40618;51.166;10.322;2024-01-10T04:59:05;50.55;;;24.00;;
26864;SDS011;40618;51.166;10.322;2024-01-10T05:01:31;51.83;;;24.83;;
26864;SDS011;40618;51.166;10.322;2024-01-10T05:03:57;52.25;;;22.80;;
26864;SDS011;40618;51.166;10.322;2024-01-10T05:06:23;46.17;;;21.90;;
26864;SDS011;40618;51.166;10.322;2024-01-10T05:08:49;49.05;;;23.60;;
26864;SDS011;40618;51.166;10.322;2024-01-10T05:11:15;55.00;;;25.30;;
26864;SDS011;40618;51.166;10.322;2024-01-10T05:13:44;47.45;;;24.63;;
26864;SDS011;40618;51.166;10.322;2024-01-10T05:16:10;48.17;;;22.38;;
26864;SDS011;40618;51.166;10.322;2024-01-10T05:18:35;51.15;;;23.83;;
26864;SDS011;40618;51.166;10.322;2024-01-10T05:21:01;47.58;;;23.25;;
26864;SDS011;40618;51.166;10.322;2024-01-10T05:23:29;53.65;;;24.63;;
26864;SDS011;40618;51.166;10.322;2024-01-10T05:25:55;52.38;;;23.90;;
26864;SDS011;40618;51.166;10.322;2024-01-10T05:28:21;44.67;;;22.02;;
26864;SDS011;40618;51.166;10.322;2024-01-10T05:30:46;53.92;;;25.80;;
26864;SDS011;40618;51.166;10.322;2024-01-10T05:33:12;53.45;;;24.38;;
26864;SDS011;40618;51.166;10.322;2024-01-10T05:35:38;48.88;;;23.15;;
26864;SDS011;40618;51.166;10.322;2024-01-10T05:38:04;47.08;;;22.98;;
26864;SDS011;40618;51.166;10.322;2024-01-10T05:40:29;49.63;;;24.60;;
26864;SDS011;40618;51.166;10.322;2024-01-10T05:42:55;47.67;;;23.92;;
26864;SDS011;40618;51.166;10.322;2024-01-10T05:45:21;52.92;;;24.25;;
26864;SDS011;40618;51.166;10.322;2024-01-10T05:47:47;54.63;;;25.70;;
26864;SDS011;40618;51.166;10.322;2024-01-10T05:50:13;53.67;;;25.00;;
26864;SDS011;40618;51.166;10.322;2024-01-10T05:52:39;54.65;;;26.88;;
26864;SDS011;40618;51.166;10.322;2024-01-10T05:55:05;49.20;;;23.88;;
26864;SDS011;40618;51.166;10.322;2024-01-10T05:57:33;53.50;;;25.08;;
26864;SDS011;40618;51.166;10.322;2024-01-10T06:00:03;51.25;;;24.33;;
26864;SDS011;40618;51.166;10.322;2024-01-10T06:02:34;53.78;;;25.10;;
26864;SDS011;40618;51.166;10.322;2024-01-10T06:05:05;52.90;;;24.58;;
26864;SDS011;40618;51.166;10.322;2024-01-10T06:07:37;56.10;;;25.85;;
26864;SDS011;40618;51.166;10.322;2024-01-10T06:10:04;49.65;;;24.80;;
26864;SDS011;40618;51.166;10.322;2024-01-10T06:12:31;52.97;;;24.92;;
26864;SDS011;40618;51.166;10.322;2024-01-10T06:14:56;53.88;;;24.67;;
26864;SDS011;40618;51.166;10.322;2024-01-10T06:17:22;52.83;;;25.25;;
26864;SDS011;40618;51.166;10.322;2024-01-10T06:19:49;59.22;;;26.50;;
26864;SDS011;40618;51.166;10.322;2024-01-10T06:22:15;54.60;;;26.83;;
26864;SDS011;40618;51.166;10.322;2024-01-10T06:24:42;62.65;;;28.00;;
26864;SDS011;40618;51.166;10.322;2024-01-10T06:27:08;132.27;;;53.40;;
26864;SDS011;40618;51.166;10.322;2024-01-10T06:29:37;88.40;;;43.08;;
26864;SDS011;40618;51.166;10.322;2024-01-10T06:32:06;71.05;;;32.58;;
26864;SDS011;40618;51.166;10.322;2024-01-10T06:34:32;59.50;;;27.88;;
26864;SDS011;40618;51.166;10.322;2024-01-10T06:36:58;59.00;;;26.20;;
26864;SDS011;40618;51.166;10.322;2024-01-10T06:39:24;50.38;;;25.83;;
26864;SDS011;40618;51.166;10.322;2024-01-10T06:41:50;51.88;;;25.67;;
26864;SDS011;40618;51.166;10.322;2024-01-10T06:44:16;55.75;;;24.63;;
26864;SDS011;40618;51.166;10.322;2024-01-10T06:46:44;51.78;;;24.65;;
26864;SDS011;40618;51.166;10.322;2024-01-10T06:49:10;55.90;;;26.00;;
26864;SDS011;40618;51.166;10.322;2024-01-10T06:51:36;53.22;;;26.20;;
26864;SDS011;40618;51.166;10.322;2024-01-10T06:54:02;55.17;;;26.23;;
26864;SDS011;40618;51.166;10.322;2024-01-10T06:56:31;50.83;;;25.83;;
26864;SDS011;40618;51.166;10.322;2024-01-10T06:58:58;51.22;;;24.40;;
26864;SDS011;40618;51.166;10.322;2024-01-10T07:01:25;56.60;;;26.45;;
26864;SDS011;40618;51.166;10.322;2024-01-10T07:03:54;54.85;;;26.60;;
26864;SDS011;40618;51.166;10.322;2024-01-10T07:06:21;50.40;;;24.83;;
26864;SDS011;40618;51.166;10.322;2024-01-10T07:08:47;56.28;;;26.02;;
26864;SDS011;40618;51.166;10.322;2024-01-10T07:11:18;62.80;;;28.30;;
26864;SDS011;40618;51.166;10.322;2024-01-10T07:13:46;53.63;;;26.75;;
26864;SDS011;40618;51.166;10.322;2024-01-10T07:16:12;55.72;;;26.17;;
26864;SDS011;40618;51.166;10.322;2024-01-10T07:18:41;57.33;;;25.67;;
26864;SDS011;40618;51.166;10.322;2024-01-10T07:21:08;63.00;;;25.90;;
26864;SDS011;40618;51.166;10.322;2024-01-10T07:23:34;54.35;;;26.73;;
26864;SDS011;40618;51.166;10.322;2024-01-10T07:26:00;61.47;;;28.27;;
26864;SDS011;40618;51.166;10.322;2024-01-10T07:28:26;59.80;;;28.30;;
26864;SDS011;40618;51.166;10.322;2024-01-10T07:30:52;54.33;;;26.20;;
26864;SDS011;40618;51.166;10.322;2024-01-10T07:33:17;63.90;;;28.77;;
26864;SDS011;40618;51.166;10.322;2024-01-10T07:35:43;53.50;;;26.77;;
26864;SDS011;40618;51.166;10.322;2024-01-10T07:38:09;89.57;;;43.45;;
26864;SDS011;40618;51.166;10.322;2024-01-10T07:40:34;61.22;;;30.38;;
26864;SDS011;40618;51.166;10.322;2024-01-10T07:43:01;58.67;;;27.83;;
26864;SDS011;40618;51.166;10.322;2024-01-10T07:45:27;56.05;;;26.77;;
26864;SDS011;40618;51.166;10.322;2024-01-10T07:47:53;65.38;;;29.92;;
26864;SDS011;40618;51.166;10.322;2024-01-10T07:50:19;60.22;;;28.55;;
26864;SDS011;40618;51.166;10.322;2024-01-10T07:52:45;60.60;;;26.77;;
26864;SDS011;40618;51.166;10.322;2024-01-10T07:55:11;53.90;;;26.35;;
26864;SDS011;40618;51.166;10.322;2024-01-10T07:57:37;59.13;;;28.50;;
26864;SDS011;40618;51.166;10.322;2024-01-10T08:00:04;61.28;;;27.27;;
26864;SDS011;40618;51.166;10.322;2024-01-10T08:02:38;66.93;;;33.78;;
26864;SDS011;40618;51.166;10.322;2024-01-10T08:05:05;63.28;;;28.48;;
26864;SDS011;40618;51.166;10.322;2024-01-10T08:07:35;57.65;;;26.95;;
26864;SDS011;40618;51.166;10.322;2024-01-10T08:10:04;70.30;;;32.03;;
26864;SDS011;40618;51.166;10.322;2024-01-10T08:12:31;62.50;;;29.40;;
26864;SDS011;40618;51.166;10.322;2024-01-10T08:14:57;66.35;;;30.60;;
26864;SDS011;40618;51.166;10.322;2024-01-10T08:17:22;70.43;;;32.65;;
26864;SDS011;40618;51.166;10.322;2024-01-10T08:19:48;76.00;;;34.00;;
26864;SDS011;40618;51.166;10.322;2024-01-10T08:22:14;90.15;;;37.67;;
26864;SDS011;40618;51.166;10.322;2024-01-10T08:24:40;161.57;;;75.93;;
26864;SDS011;40618;51.166;10.322;2024-01-10T08:27:06;84.80;;;37.25;;
26864;SDS011;40618;51.166;10.322;2024-01-10T08:29:31;69.18;;;32.17;;
26864;SDS011;40618;51.166;10.322;2024-01-10T08:31:57;64.95;;;29.92;;
26864;SDS011;40618;51.166;10.322;2024-01-10T08:34:23;56.92;;;26.83;;
26864;SDS011;40618;51.166;10.322;2024-01-10T08:36:49;59.75;;;28.88;;
26864;SDS011;40618;51.166;10.322;2024-01-10T08:39:16;59.65;;;28.73;;
26864;SDS011;40618;51.166;10.322;2024-01-10T08:41:42;58.60;;;29.15;;
26864;SDS011;40618;51.166;10.322;2024-01-10T08:44:09;63.75;;;30.13;;
26864;SDS011;40618;51.166;10.322;2024-01-10T08:46:35;60.58;;;28.42;;
26864;SDS011;40618;51.166;10.322;2024-01-10T08:49:01;58.72;;;26.63;;
26864;SDS011;40618;51.166;10.322;2024-01-10T08:51:27;62.47;;;27.98;;
26864;SDS011;40618;51.166;10.322;2024-01-10T08:53:53;65.70;;;29.15;;
26864;SDS011;40618;51.166;10.322;2024-01-10T08:56:19;59.08;;;27.52;;
26864;SDS011;40618;51.166;10.322;2024-01-10T08:58:45;52.70;;;25.85;;
26864;SDS011;40618;51.166;10.322;2024-01-10T09:01:11;58.20;;;26.38;;
26864;SDS011;40618;51.166;10.322;2024-01-10T09:03:36;63.78;;;27.98;;
26864;SDS011;40618;51.166;10.322;2024-01-10T09:06:05;58.95;;;27.33;;
26864;SDS011;40618;51.166;10.322;2024-01-10T09:08:32;58.08;;;28.70;;
26864;SDS011;40618;51.166;10.322;2024-01-10T09:10:59;56.67;;;28.80;;
26864;SDS011;40618;51.166;10.322;2024-01-10T09:13:25;60.47;;;27.35;;
26864;SDS011;40618;51.166;10.322;2024-01-10T09:15:51;60.85;;;27.48;;
26864;SDS011;40618;51.166;10.322;2024-01-10T09:18:16;52.97;;;27.25;;
26864;SDS011;40618;51.166;10.322;2024-01-10T09:20:42;58.80;;;27.75;;
26864;SDS011;40618;51.166;10.322;2024-01-10T09:23:09;58.40;;;27.95;;
26864;SDS011;40618;51.166;10.322;2024-01-10T09:25:35;58.92;;;28.05;;
26864;SDS011;40618;51.166;10.322;2024-01-10T09:28:01;58.45;;;28.30;;
26864;SDS011;40618;51.166;10.322;2024-01-10T09:30:29;62.38;;;28.13;;
26864;SDS011;40618;51.166;10.322;2024-01-10T09:32:54;58.45;;;27.85;;
26864;SDS011;40618;51.166;10.322;2024-01-10T09:35:21;56.50;;;26.98;;
26864;SDS011;40618;51.166;10.322;2024-01-10T09:37:47;64.28;;;30.23;;
26864;SDS011;40618;51.166;10.322;2024-01-10T09:40:14;65.90;;;28.80;;
26864;SDS011;40618;51.166;10.322;2024-01-10T09:42:41;60.67;;;27.10;;
26864;SDS011;40618;51.166;10.322;2024-01-10T09:45:10;60.42;;;28.67;;
26864;SDS011;40618;51.166;10.322;2024-01-10T09:47:38;55.70;;;27.23;;
26864;SDS011;40618;51.166;10.322;2024-01-10T09:50:07;56.05;;;27.65;;
26864;SDS011;40618;51.166;10.322;2024-01-10T09:52:39;62.03;;;30.33;;
26864;SDS011;40618;51.166;10.322;2024-01-10T09:55:12;64.35;;;30.45;;
26864;SDS011;40618;51.166;10.322;2024-01-10T09:57:41;57.13;;;26.83;;
26864;SDS011;40618;51.166;10.322;2024-01-10T10:00:08;63.90;;;30.55;;
26864;SDS011;40618;51.166;10.322;2024-01-10T10:02:36;63.20;;;29.83;;
26864;SDS011;40618;51.166;10.322;2024-01-10T10:07:47;62.55;;;29.92;;
26864;SDS011;40618;51.166;10.322;2024-01-10T10:10:15;66.15;;;30.15;;
26864;SDS011;40618;51.166;10.322;2024-01-10T10:12:46;61.90;;;30.17;;
26864;SDS011;40618;51.166;10.322;2024-01-10T10:15:20;71.95;;;32.85;;
26864;SDS011;40618;51.166;10.322;2024-01-10T10:17:53;58.38;;;30.33;;
26864;SDS011;40618;51.166;10.322;2024-01-10T10:20:26;74.57;;;36.85;;
26864;SDS011;40618;51.166;10.322;2024-01-10T10:25:29;72.35;;;37.05;;
26864;SDS011;40618;51.166;10.322;2024-01-10T10:28:00;66.15;;;31.38;;
26864;SDS011;40618;51.166;10.322;2024-01-10T10:30:28;64.13;;;31.10;;
26864;SDS011;40618;51.166;10.322;2024-01-10T10:32:56;66.70;;;31.48;;
26864;SDS011;40618;51.166;10.322;2024-01-10T10:35:21;62.30;;;31.88;;
26864;SDS011;40618;51.166;10.322;2024-01-10T10:37:51;71.80;;;34.40;;
26864;SDS011;40618;51.166;10.322;2024-01-10T10:42:45;65.30;;;29.17;;
26864;SDS011;40618;51.166;10.322;2024-01-10T10:45:16;70.97;;;34.28;;
26864;SDS011;40618;51.166;10.322;2024-01-10T10:47:44;63.88;;;30.55;;
26864;SDS011;40618;51.166;10.322;2024-01-10T10:50:19;69.85;;;35.45;;
26864;SDS011;40618;51.166;10.322;2024-01-10T10:52:48;68.50;;;34.13;;
26864;SDS011;40618;51.166;10.322;2024-01-10T10:55:17;65.30;;;32.25;;
26864;SDS011;40618;51.166;10.322;2024-01-10T10:57:47;64.47;;;32.53;;
26864;SDS011;40618;51.166;10.322;2024-01-10T11:02:45;61.47;;;29.30;;
26864;SDS011;40618;51.166;10.322;2024-01-10T11:05:12;55.72;;;26.95;;
26864;SDS011;40618;51.166;10.322;2024-01-10T11:07:38;60.08;;;30.02;;
26864;SDS011;40618;51.166;10.322;2024-01-10T11:10:08;60.50;;;29.20;;
26864;SDS011;40618;51.166;10.322;2024-01-10T11:24:43;60.45;;;28.88;;
26864;SDS011;40618;51.166;10.322;2024-01-10T11:27:12;64.60;;;30.80;;
26864;SDS011;40618;51.166;10.322;2024-01-10T11:29:40;57.10;;;28.83;;
26864;SDS011;40618;51.166;10.322;2024-01-10T11:32:07;58.40;;;28.30;;
26864;SDS011;40618;51.166;10.322;2024-01-10T11:34:59;60.38;;;29.05;;
26864;SDS011;40618;51.166;10.322;2024-01-10T11:37:39;62.20;;;28.80;;
26864;SDS011;40618;51.166;10.322;2024-01-10T11:40:08;66.75;;;28.58;;
26864;SDS011;40618;51.166;10.322;2024-01-10T11:42:41;60.30;;;28.70;;
26864;SDS011;40618;51.166;10.322;2024-01-10T11:45:09;62.20;;;29.90;;
26864;SDS011;40618;51.166;10.322;2024-01-10T11:47:38;62.67;;;30.45;;
26864;SDS011;40618;51.166;10.322;2024-01-10T11:50:07;57.30;;;28.48;;
26864;SDS011;40618;51.166;10.322;2024-01-10T11:52:33;63.47;;;29.65;;
26864;SDS011;40618;51.166;10.322;2024-01-10T11:55:01;64.28;;;30.13;;
26864;SDS011;40618;51.166;10.322;2024-01-10T11:57:28;62.35;;;27.88;;
26864;SDS011;40618;51.166;10.322;2024-01-10T11:59:57;63.28;;;30.25;;
26864;SDS011;40618;51.166;10.322;2024-01-10T12:02:28;61.80;;;28.73;;
26864;SDS011;40618;51.166;10.322;2024-01-10T12:04:54;60.80;;;31.13;;
26864;SDS011;40618;51.166;10.322;2024-01-10T12:07:20;62.42;;;30.27;;
26864;SDS011;40618;51.166;10.322;2024-01-10T12:09:46;56.70;;;29.63;;
26864;SDS011;40618;51.166;10.322;2024-01-10T12:12:13;60.30;;;28.98;;
26864;SDS011;40618;51.166;10.322;2024-01-10T12:14:39;60.22;;;27.10;;
26864;SDS011;40618;51.166;10.322;2024-01-10T12:17:06;56.85;;;26.17;;
26864;SDS011;40618;51.166;10.322;2024-01-10T12:19:35;54.28;;;27.58;;
26864;SDS011;40618;51.166;10.322;2024-01-10T12:22:04;60.47;;;28.08;;
26864;SDS011;40618;51.166;10.322;2024-01-10T12:24:30;62.30;;;28.40;;
26864;SDS011;40618;51.166;10.322;2024-01-10T12:26:57;56.95;;;27.80;;
26864;SDS011;40618;51.166;10.322;2024-01-10T12:29:23;58.75;;;27.35;;
26864;SDS011;40618;51.166;10.322;2024-01-10T12:31:50;56.83;;;28.63;;
26864;SDS011;40618;51.166;10.322;2024-01-10T12:34:16;55.30;;;26.08;;
26864;SDS011;40618;51.166;10.322;2024-01-10T12:36:42;58.70;;;27.80;;
26864;SDS011;40618;51.166;10.322;2024-01-10T12:39:08;59.60;;;28.77;;
26864;SDS011;40618;51.166;10.322;2024-01-10T12:41:34;58.10;;;28.05;;
26864;SDS011;40618;51.166;10.322;2024-01-10T12:44:01;57.22;;;27.60;;
26864;SDS011;40618;51.166;10.322;2024-01-10T12:46:30;63.30;;;28.65;;
26864;SDS011;40618;51.166;10.322;2024-01-10T12:49:00;57.83;;;27.88;;
26864;SDS011;40618;51.166;10.322;2024-01-10T12:51:28;56.80;;;27.58;;
26864;SDS011;40618;51.166;10.322;2024-01-10T12:53:55;63.47;;;29.35;;
26864;SDS011;40618;51.166;10.322;2024-01-10T12:56:23;61.42;;;28.83;;
26864;SDS011;40618;51.166;10.322;2024-01-10T12:58:50;57.30;;;27.20;;
26864;SDS011;40618;51.166;10.322;2024-01-10T13:01:16;57.53;;;27.00;;
26864;SDS011;40618;51.166;10.322;2024-01-10T13:03:42;52.05;;;26.08;;
26864;SDS011;40618;51.166;10.322;2024-01-10T13:06:08;54.42;;;26.75;;
26864;SDS011;40618;51.166;10.322;2024-01-10T13:08:34;57.50;;;26.38;;
26864;SDS011;40618;51.166;10.322;2024-01-10T13:11:01;58.28;;;27.10;;
26864;SDS011;40618;51.166;10.322;2024-01-10T13:13:33;61.67;;;30.52;;
26864;SDS011;40618;51.166;10.322;2024-01-10T13:15:58;59.95;;;28.52;;
26864;SDS011;40618;51.166;10.322;2024-01-10T13:18:25;57.85;;;27.08;;
26864;SDS011;40618;51.166;10.322;2024-01-10T13:20:53;52.47;;;26.95;;
26864;SDS011;40618;51.166;10.322;2024-01-10T13:23:19;60.35;;;29.13;;
26864;SDS011;40618;51.166;10.322;2024-01-10T13:25:47;56.85;;;28.10;;
26864;SDS011;40618;51.166;10.322;2024-01-10T13:28:13;60.10;;;27.75;;
26864;SDS011;40618;51.166;10.322;2024-01-10T13:30:40;51.92;;;26.85;;
26864;SDS011;40618;51.166;10.322;2024-01-10T13:33:08;58.65;;;27.45;;
26864;SDS011;40618;51.166;10.322;2024-01-10T13:35:34;53.05;;;26.25;;
26864;SDS011;40618;51.166;10.322;2024-01-10T13:38:01;60.22;;;28.35;;
26864;SDS011;40618;51.166;10.322;2024-01-10T13:40:27;55.28;;;27.13;;
26864;SDS011;40618;51.166;10.322;2024-01-10T13:42:53;60.90;;;27.83;;
26864;SDS011;40618;51.166;10.322;2024-01-10T13:45:19;52.85;;;26.67;;
26864;SDS011;40618;51.166;10.322;2024-01-10T13:47:45;58.10;;;27.30;;
26864;SDS011;40618;51.166;10.322;2024-01-10T13:50:11;54.67;;;26.95;;
26864;SDS011;40618;51.166;10.322;2024-01-10T13:52:37;58.97;;;28.40;;
26864;SDS011;40618;51.166;10.322;2024-01-10T13:55:03;55.63;;;26.00;;
26864;SDS011;40618;51.166;10.322;2024-01-10T13:57:32;52.13;;;26.15;;
26864;SDS011;40618;51.166;10.322;2024-01-10T13:59:58;56.38;;;25.77;;
26864;SDS011;40618;51.166;10.322;2024-01-10T14:02:24;57.95;;;27.65;;
26864;SDS011;40618;51.166;10.322;2024-01-10T14:04:51;53.20;;;26.17;;
26864;SDS011;40618;51.166;10.322;2024-01-10T14:07:24;55.10;;;26.08;;
26864;SDS011;40618;51.166;10.322;2024-01-10T14:09:50;58.17;;;29.02;;
26864;SDS011;40618;51.166;10.322;2024-01-10T14:12:20;60.58;;;29.70;;
26864;SDS011;40618;51.166;10.322;2024-01-10T14:14:46;58.55;;;29.08;;
26864;SDS011;40618;51.166;10.322;2024-01-10T14:17:11;57.88;;;27.73;;
26864;SDS011;40618;51.166;10.322;2024-01-10T14:19:37;53.38;;;26.48;;
26864;SDS011;40618;51.166;10.322;2024-01-10T14:22:03;62.03;;;30.27;;
26864;SDS011;40618;51.166;10.322;2024-01-10T14:24:29;106.03;;;49.85;;
26864;SDS011;40618;51.166;10.322;2024-01-10T14:26:55;72.82;;;36.53;;
26864;SDS011;40618;51.166;10.322;2024-01-10T14:29:20;68.60;;;34.70;;
26864;SDS011;40618;51.166;10.322;2024-01-10T14:31:47;71.70;;;36.17;;